Hauptseite
METAR-TAF:

METAR-TAF

Flughäfen :

Tripolis, Libyen

Mitiga International Airport

Breite: 32-54N, Länge: 13-17E, Höhe: 11 m

Beobachtung

Neuester Wetterbericht von vor 14 Stunden und 5 Minuten, um 09:50 UTC
Wind 9 kt aus West/Südwest
Temperatur 17°C
Luftfeuchtigkeit 39%
Luftdruck 1023 hPa
Sichtweite: 8000 m
Himmel klar

METAR: HLLM 170950Z 24009KT 8000 SKC 17/03 Q1023

Zeit: 01:55 (23:55 UTC)

Prognose

Neuester Wetterbericht von vor 12 Stunden und 55 Minuten, um 11:00 UTC
Gültige Prognose vom 17 um 12 UTC bis 18 um 12 UTC
Wind 15 kt aus West
Sichtweite: 8000 m
Übergehend zu
vom 17 um 20 UTC bis 17 um 22 UTC
Wind 5 kt aus Südwest
Übergehend zu
vom 18 um 00 UTC bis 18 um 02 UTC
Wind 12 kt aus Nord/Nordwest

TAF: HLLM 171100Z 1712/1812 28015KT 8000 NSC BECMG 1720/1722 22005KT BECMG 1800/1802 33012KT

Wetterbeobachtungen und Prognosen von mehr als 4000 Flughäfen (METAR und TAF Bericht).

Die verfügbaren Stationen werden durch gelbe und rote Markierungen auf der Karte dargestellt.

Führen Sie die Maus auf sie, um den Namen der Station zu sehen.

Darauf klicken, um die Beobachtung von Wetterbeobachtungen und Prognosen zu sehen.

Um die Karte zu ändern : klicken Sie auf den grünen Tasten mit einem schwarzen Kreuz Zum Vergrößern, auf den grünen Button mit einem Gedankenstrich zu verkleinern, oder auf die grünen Pfeile für benachbarte Karten.


METAR-TAF: